Time;durP1;ratioP1;P1;durP2;ratioP2;P2;SDS_P1;SDS_P2;PMS_P1;PMS_P2;Temp;Humidity;BMP_temperature;BMP_pressure;BME280_temperature;BME280_humidity;BME280_pressure;Samples;Min_cycle;Max_cycle;Signal;HPM_P1;HPM_P2
2022/03/06 00:02:00;;;;;;;;;;;16.70;37.40;;;;;;5034073;28;43148;-76
2022/03/06 00:04:25;;;;;;;;;;;16.80;36.90;;;;;;5024413;28;43166;-78
2022/03/06 00:06:51;;;;;;;;;;;16.80;37.60;;;;;;5035445;28;44362;-80
2022/03/06 00:09:16;;;;;;;;;;;16.80;37.70;;;;;;5019148;28;43096;-79
2022/03/06 00:11:42;;;;;;;;;;;16.70;37.00;;;;;;5022519;28;43018;-77
2022/03/06 00:14:08;;;;;;;;;;;16.70;37.00;;;;;;5020521;28;42984;-82
2022/03/06 00:16:33;;;;;;;;;;;16.80;37.90;;;;;;5021347;28;43813;-76
2022/03/06 00:18:59;;;;;;;;;;;16.80;37.20;;;;;;5023330;28;42956;-78
2022/03/06 00:21:24;;;;;;;;;;;16.80;38.10;;;;;;5027784;28;43471;-78
2022/03/06 00:23:50;;;;;;;;;;;16.70;37.30;;;;;;5020350;28;43055;-75
2022/03/06 00:26:15;;;;;;;;;;;16.70;37.30;;;;;;5022581;28;45264;-76
2022/03/06 00:28:41;;;;;;;;;;;16.70;37.60;;;;;;5022551;28;43035;-75
2022/03/06 00:31:06;;;;;;;;;;;16.40;37.30;;;;;;5020209;28;43197;-77
2022/03/06 00:33:32;;;;;;;;;;;16.70;37.50;;;;;;5024730;28;42978;-75
2022/03/06 00:35:58;;;;;;;;;;;16.70;37.70;;;;;;5027536;28;43329;-75
2022/03/06 00:38:24;;;;;;;;;;;16.80;37.60;;;;;;5030616;28;43592;-75
2022/03/06 00:40:49;;;;;;;;;;;16.70;37.60;;;;;;5027612;28;42985;-76
2022/03/06 00:43:17;;;;;;;;;;;16.70;38.40;;;;;;5022348;28;43069;-77
2022/03/06 00:45:42;;;;;;;;;;;16.70;37.70;;;;;;5022061;28;42980;-76
2022/03/06 00:48:08;;;;;;;;;;;16.70;38.50;;;;;;5035609;28;43093;-76
2022/03/06 00:50:37;;;;;;;;;;;16.80;38.60;;;;;;5021851;28;43471;-79
2022/03/06 00:53:03;;;;;;;;;;;16.50;38.10;;;;;;5027578;28;43007;-78
2022/03/06 00:55:30;;;;;;;;;;;16.80;38.40;;;;;;5027521;28;44202;-80
2022/03/06 00:57:56;;;;;;;;;;;16.80;37.90;;;;;;5021615;28;43237;-80
2022/03/06 01:00:22;;;;;;;;;;;16.70;38.70;;;;;;5024175;28;43137;-80
2022/03/06 01:02:47;;;;;;;;;;;16.70;38.70;;;;;;5021668;28;43052;-81
2022/03/06 01:05:13;;;;;;;;;;;16.70;39.10;;;;;;5026933;28;43672;-82
2022/03/06 01:07:38;;;;;;;;;;;16.60;38.40;;;;;;5021545;28;42934;-82
2022/03/06 01:10:04;;;;;;;;;;;16.70;39.30;;;;;;5027509;28;43436;-80
2022/03/06 01:12:30;;;;;;;;;;;16.60;38.60;;;;;;5021617;28;42965;-81
2022/03/06 01:14:55;;;;;;;;;;;16.70;38.60;;;;;;5021562;28;42858;-82
2022/03/06 01:17:21;;;;;;;;;;;16.60;39.40;;;;;;5022812;28;42849;-81
2022/03/06 01:19:47;;;;;;;;;;;16.70;39.20;;;;;;5023372;28;42947;-80
2022/03/06 01:22:13;;;;;;;;;;;16.60;38.70;;;;;;5023273;28;42964;-82
2022/03/06 01:24:39;;;;;;;;;;;16.70;40.10;;;;;;5022542;28;42994;-82
2022/03/06 01:27:04;;;;;;;;;;;16.60;38.80;;;;;;5023107;28;43075;-80
2022/03/06 01:29:30;;;;;;;;;;;16.60;39.10;;;;;;5025627;28;43080;-81
2022/03/06 01:31:55;;;;;;;;;;;16.60;39.10;;;;;;5026301;28;43095;-80
2022/03/06 01:34:21;;;;;;;;;;;16.70;39.30;;;;;;5025618;28;43119;-82
2022/03/06 01:36:46;;;;;;;;;;;16.70;40.00;;;;;;5025912;28;43000;-81
2022/03/06 01:39:12;;;;;;;;;;;16.60;39.90;;;;;;5025540;28;43673;-81
2022/03/06 01:41:37;;;;;;;;;;;16.60;39.50;;;;;;5026257;28;42967;-81
2022/03/06 01:44:04;;;;;;;;;;;16.60;40.10;;;;;;5025979;28;42912;-81
2022/03/06 01:46:29;;;;;;;;;;;16.60;39.90;;;;;;5025474;28;42800;-81
2022/03/06 01:48:55;;;;;;;;;;;16.60;40.20;;;;;;5035503;28;43824;-82
2022/03/06 01:51:20;;;;;;;;;;;16.60;40.00;;;;;;5043714;28;42921;-82
2022/03/06 01:53:46;;;;;;;;;;;16.60;39.30;;;;;;5046180;28;42864;-82
2022/03/06 01:56:13;;;;;;;;;;;16.60;39.90;;;;;;5045557;28;42957;-80
2022/03/06 01:58:40;;;;;;;;;;;16.60;39.90;;;;;;5045622;28;43530;-83
2022/03/06 02:01:05;;;;;;;;;;;16.60;40.00;;;;;;5045370;28;43133;-81
2022/03/06 02:03:31;;;;;;;;;;;16.70;39.60;;;;;;5045296;28;43116;-81
2022/03/06 02:05:56;;;;;;;;;;;16.70;39.70;;;;;;5045669;28;43175;-82
2022/03/06 02:08:22;;;;;;;;;;;16.80;40.10;;;;;;5045532;28;43323;-83
2022/03/06 02:10:50;;;;;;;;;;;16.60;40.30;;;;;;5045769;28;43005;-82
2022/03/06 02:13:16;;;;;;;;;;;16.60;39.70;;;;;;5043905;28;44415;-82
2022/03/06 02:15:44;;;;;;;;;;;16.70;40.00;;;;;;5045947;28;42926;-81
2022/03/06 02:18:09;;;;;;;;;;;16.70;40.00;;;;;;5045267;28;44286;-81
2022/03/06 02:20:37;;;;;;;;;;;16.70;39.40;;;;;;5045676;28;42989;-82
2022/03/06 02:23:02;;;;;;;;;;;16.70;40.00;;;;;;5045423;28;43119;-82
2022/03/06 02:25:30;;;;;;;;;;;16.70;40.00;;;;;;5044920;28;43233;-81
2022/03/06 02:27:58;;;;;;;;;;;16.90;40.20;;;;;;5043876;28;42961;-81
2022/03/06 02:30:26;;;;;;;;;;;16.80;39.70;;;;;;5045249;28;42856;-81
2022/03/06 02:32:52;;;;;;;;;;;16.70;39.70;;;;;;5045190;28;43061;-81
2022/03/06 02:35:18;;;;;;;;;;;16.80;40.30;;;;;;5045046;28;42886;-81
2022/03/06 02:37:44;;;;;;;;;;;16.80;39.80;;;;;;5044731;28;43372;-81
2022/03/06 02:40:11;;;;;;;;;;;16.80;40.50;;;;;;5042695;28;42889;-82
2022/03/06 02:42:38;;;;;;;;;;;16.70;39.80;;;;;;5043941;28;45249;-81
2022/03/06 02:45:14;;;;;;;;;;;16.80;40.40;;;;;;5044204;28;43069;-80
2022/03/06 02:47:40;;;;;;;;;;;16.70;41.10;;;;;;5044684;28;42938;-82
2022/03/06 02:50:06;;;;;;;;;;;16.70;41.30;;;;;;5045080;28;42916;-81
2022/03/06 02:52:32;;;;;;;;;;;16.60;41.30;;;;;;5044778;28;43640;-82
2022/03/06 02:54:58;;;;;;;;;;;16.70;40.80;;;;;;5044433;28;42938;-82
2022/03/06 02:57:23;;;;;;;;;;;16.70;40.80;;;;;;5044496;28;43658;-81
2022/03/06 02:59:49;;;;;;;;;;;16.80;41.00;;;;;;5044115;28;43026;-81
2022/03/06 03:02:14;;;;;;;;;;;16.80;40.20;;;;;;5043747;28;42951;-81
2022/03/06 03:04:40;;;;;;;;;;;16.70;40.80;;;;;;5044263;28;42908;-80
2022/03/06 03:07:07;;;;;;;;;;;16.70;41.00;;;;;;5041870;28;43635;-82
2022/03/06 03:09:34;;;;;;;;;;;16.70;41.00;;;;;;5046139;28;42832;-80
2022/03/06 03:12:02;;;;;;;;;;;16.80;41.00;;;;;;5045348;28;43113;-75
2022/03/06 03:14:31;;;;;;;;;;;16.80;41.00;;;;;;5044397;28;43023;-79
2022/03/06 03:16:57;;;;;;;;;;;18.40;41.80;;;;;;5044194;28;42974;-77
2022/03/06 03:19:23;;;;;;;;;;;16.70;41.60;;;;;;5042246;28;42994;-78
2022/03/06 03:21:48;;;;;;;;;;;16.70;41.60;;;;;;5043746;28;43827;-81
2022/03/06 03:24:14;;;;;;;;;;;16.70;42.60;;;;;;5044279;28;43020;-77
2022/03/06 03:26:39;;;;;;;;;;;16.60;42.70;;;;;;5044036;28;43217;-76
2022/03/06 03:29:05;;;;;;;;;;;16.60;42.20;;;;;;5043755;28;42994;-82
2022/03/06 03:31:30;;;;;;;;;;;16.50;42.50;;;;;;5043808;28;43496;-82
2022/03/06 03:33:56;;;;;;;;;;;16.70;43.00;;;;;;5042963;28;43244;-82
2022/03/06 03:36:22;;;;;;;;;;;16.60;43.50;;;;;;5043671;28;42963;-81
2022/03/06 03:38:47;;;;;;;;;;;16.50;43.00;;;;;;5044487;28;42998;-77
2022/03/06 03:41:13;;;;;;;;;;;16.60;43.30;;;;;;5044210;28;43543;-81
2022/03/06 03:43:38;;;;;;;;;;;16.60;43.60;;;;;;5043782;28;43235;-76
2022/03/06 03:46:06;;;;;;;;;;;16.60;43.50;;;;;;5044103;28;43622;-77
2022/03/06 03:48:31;;;;;;;;;;;16.60;43.70;;;;;;5044508;28;43016;-76
2022/03/06 03:50:57;;;;;;;;;;;16.60;43.90;;;;;;5043187;28;43170;-78
2022/03/06 03:53:23;;;;;;;;;;;16.60;44.00;;;;;;5044445;28;43072;-77
2022/03/06 03:55:49;;;;;;;;;;;16.60;43.90;;;;;;5043930;28;42856;-76
2022/03/06 03:58:14;;;;;;;;;;;16.60;44.20;;;;;;5044064;28;43143;-77
2022/03/06 04:00:42;;;;;;;;;;;16.60;44.20;;;;;;5043245;28;43019;-77
2022/03/06 04:03:07;;;;;;;;;;;16.60;44.10;;;;;;5043968;28;43039;-76
2022/03/06 04:05:33;;;;;;;;;;;16.60;43.80;;;;;;5043973;28;44935;-79
2022/03/06 04:07:59;;;;;;;;;;;16.60;43.60;;;;;;5043735;28;42962;-77
2022/03/06 04:10:24;;;;;;;;;;;16.60;44.50;;;;;;5043796;28;43029;-77
2022/03/06 04:12:50;;;;;;;;;;;16.60;43.60;;;;;;5043913;28;42960;-76
2022/03/06 04:15:15;;;;;;;;;;;16.60;43.70;;;;;;5043404;28;43216;-76
2022/03/06 04:17:41;;;;;;;;;;;16.60;43.80;;;;;;5043906;28;42892;-75
2022/03/06 04:20:07;;;;;;;;;;;16.60;44.40;;;;;;5043241;28;43046;-76
2022/03/06 04:22:32;;;;;;;;;;;16.60;44.40;;;;;;5043554;28;42973;-76
2022/03/06 04:24:58;;;;;;;;;;;16.60;44.60;;;;;;5043520;28;43650;-75
2022/03/06 04:27:23;;;;;;;;;;;16.60;44.70;;;;;;5043773;28;42777;-75
2022/03/06 04:29:49;;;;;;;;;;;16.60;44.50;;;;;;5043719;28;43682;-76
2022/03/06 04:32:14;;;;;;;;;;;16.60;44.60;;;;;;5043679;28;42949;-76
2022/03/06 04:34:40;;;;;;;;;;;16.60;44.00;;;;;;5042880;28;43088;-75
2022/03/06 04:37:06;;;;;;;;;;;16.60;44.70;;;;;;5042851;28;43507;-74
2022/03/06 04:39:31;;;;;;;;;;;16.60;44.60;;;;;;5043606;28;42927;-76
2022/03/06 04:41:57;;;;;;;;;;;16.60;44.90;;;;;;5046200;28;43203;-77
2022/03/06 04:44:23;;;;;;;;;;;16.60;44.90;;;;;;5033615;28;43306;-76
2022/03/06 04:46:48;;;;;;;;;;;16.60;44.10;;;;;;5023366;28;42841;-76
2022/03/06 04:49:14;;;;;;;;;;;16.70;44.90;;;;;;5022899;28;43504;-76
2022/03/06 04:51:39;;;;;;;;;;;16.60;44.90;;;;;;5023675;28;43565;-76
2022/03/06 04:54:05;;;;;;;;;;;16.60;44.00;;;;;;5023237;28;43187;-76
2022/03/06 04:56:31;;;;;;;;;;;16.60;44.20;;;;;;5022803;28;42975;-75
2022/03/06 04:58:56;;;;;;;;;;;16.60;44.10;;;;;;5024024;28;42884;-76
2022/03/06 05:01:22;;;;;;;;;;;16.60;43.70;;;;;;5063415;28;43280;-75
2022/03/06 05:03:48;;;;;;;;;;;16.70;43.80;;;;;;5066882;28;43504;-80
2022/03/06 05:06:14;;;;;;;;;;;16.80;44.10;;;;;;5041096;28;43094;-82
2022/03/06 05:08:39;;;;;;;;;;;16.70;43.30;;;;;;5026041;28;43095;-80
2022/03/06 05:11:05;;;;;;;;;;;16.80;44.30;;;;;;5026782;28;42911;-81
2022/03/06 05:13:30;;;;;;;;;;;16.70;44.60;;;;;;5026352;28;43176;-80
2022/03/06 05:15:56;;;;;;;;;;;16.70;44.00;;;;;;5026054;28;43233;-81
2022/03/06 05:18:21;;;;;;;;;;;15.90;44.20;;;;;;5030648;28;42980;-82
2022/03/06 05:20:47;;;;;;;;;;;16.70;44.90;;;;;;5045882;28;43076;-82
2022/03/06 05:23:13;;;;;;;;;;;16.60;44.30;;;;;;5044880;28;43733;-81
2022/03/06 05:25:38;;;;;;;;;;;16.60;44.30;;;;;;5046209;28;43052;-81
2022/03/06 05:28:04;;;;;;;;;;;16.60;45.00;;;;;;5046413;28;42852;-81
2022/03/06 05:30:31;;;;;;;;;;;16.60;44.90;;;;;;5046101;28;42860;-81
2022/03/06 05:32:57;;;;;;;;;;;16.60;44.50;;;;;;5046131;28;43312;-82
2022/03/06 05:35:22;;;;;;;;;;;16.60;44.50;;;;;;5046216;28;42936;-83
2022/03/06 05:37:48;;;;;;;;;;;16.60;45.20;;;;;;5045774;28;43858;-81
2022/03/06 05:40:13;;;;;;;;;;;16.60;44.50;;;;;;5045564;28;42994;-82
2022/03/06 05:42:39;;;;;;;;;;;16.60;44.60;;;;;;5044951;28;43056;-81
2022/03/06 05:45:05;;;;;;;;;;;16.60;45.40;;;;;;5045492;28;43040;-82
2022/03/06 05:47:30;;;;;;;;;;;16.60;45.10;;;;;;5044330;28;43386;-81
2022/03/06 05:49:56;;;;;;;;;;;16.60;45.10;;;;;;5045843;28;43019;-81
2022/03/06 05:52:21;;;;;;;;;;;16.60;45.10;;;;;;5045703;28;43373;-80
2022/03/06 05:54:47;;;;;;;;;;;16.60;45.20;;;;;;5037400;28;43089;-82
2022/03/06 05:57:13;;;;;;;;;;;16.60;44.60;;;;;;5029049;28;43769;-81
2022/03/06 05:59:39;;;;;;;;;;;16.60;44.50;;;;;;5033754;28;42975;-83
2022/03/06 06:02:04;;;;;;;;;;;16.60;45.10;;;;;;5045458;28;43196;-82
2022/03/06 06:04:30;;;;;;;;;;;16.60;45.10;;;;;;5042165;28;42882;-78
2022/03/06 06:06:55;;;;;;;;;;;16.60;44.90;;;;;;5033053;28;42931;-79
2022/03/06 06:09:21;;;;;;;;;;;16.70;45.70;;;;;;5037447;28;43108;-80
2022/03/06 06:11:46;;;;;;;;;;;16.60;45.10;;;;;;5028449;28;43690;-79
2022/03/06 06:14:12;;;;;;;;;;;16.70;45.10;;;;;;5030094;28;43081;-79
2022/03/06 06:16:38;;;;;;;;;;;16.60;45.10;;;;;;5028366;28;43071;-78
2022/03/06 06:19:04;;;;;;;;;;;16.60;44.60;;;;;;5049740;28;43537;-78
2022/03/06 06:21:29;;;;;;;;;;;16.60;45.20;;;;;;5025669;28;43320;-80
2022/03/06 06:23:55;;;;;;;;;;;13.80;43.60;;;;;;5040898;28;42989;-77
2022/03/06 06:26:23;;;;;;;;;;;16.60;44.90;;;;;;5043756;28;44787;-79
2022/03/06 06:28:52;;;;;;;;;;;16.60;44.90;;;;;;5043998;28;43016;-79
2022/03/06 06:31:18;;;;;;;;;;;16.60;45.00;;;;;;5041206;28;43544;-79
2022/03/06 06:33:43;;;;;;;;;;;16.60;45.00;;;;;;5037563;28;42973;-79
2022/03/06 06:36:09;;;;;;;;;;;16.60;45.10;;;;;;5025672;28;43685;-82
2022/03/06 06:38:35;;;;;;;;;;;16.60;44.90;;;;;;5041697;28;43026;-80
2022/03/06 06:41:01;;;;;;;;;;;16.60;44.80;;;;;;5042862;28;43205;-77
2022/03/06 06:43:29;;;;;;;;;;;16.60;44.70;;;;;;5032098;28;43007;-77
2022/03/06 06:45:54;;;;;;;;;;;16.60;44.00;;;;;;5039567;28;44388;-78
2022/03/06 06:48:20;;;;;;;;;;;16.60;44.40;;;;;;5041125;28;44006;-79
2022/03/06 06:50:45;;;;;;;;;;;16.60;44.50;;;;;;5043395;28;43802;-76
2022/03/06 06:53:11;;;;;;;;;;;16.60;42.40;;;;;;5043325;28;43219;-82
2022/03/06 06:55:37;;;;;;;;;;;16.60;43.20;;;;;;5023682;28;43003;-81
2022/03/06 06:58:03;;;;;;;;;;;16.60;41.30;;;;;;5030074;28;43140;-78
2022/03/06 07:00:29;;;;;;;;;;;16.60;42.40;;;;;;5043928;28;43806;-79
2022/03/06 07:02:54;;;;;;;;;;;16.50;39.50;;;;;;5041697;28;43311;-80
2022/03/06 07:05:20;;;;;;;;;;;16.50;41.40;;;;;;5043214;28;43549;-78
2022/03/06 07:07:45;;;;;;;;;;;16.50;41.20;;;;;;5042837;28;43049;-78
2022/03/06 07:10:11;;;;;;;;;;;16.50;41.20;;;;;;5044748;28;43107;-80
2022/03/06 07:12:43;;;;;;;;;;;16.60;40.60;;;;;;5044559;28;42955;-80
2022/03/06 07:15:09;;;;;;;;;;;16.60;41.00;;;;;;5044675;28;42994;-78
2022/03/06 07:17:34;;;;;;;;;;;16.60;41.00;;;;;;5044653;28;42991;-79
2022/03/06 07:20:00;;;;;;;;;;;16.60;40.60;;;;;;5043346;28;44325;-79
2022/03/06 07:22:25;;;;;;;;;;;16.70;40.90;;;;;;5045433;28;43050;-80
2022/03/06 07:24:51;;;;;;;;;;;16.70;43.50;;;;;;5044653;28;42930;-80
2022/03/06 07:27:16;;;;;;;;;;;16.70;43.30;;;;;;5046226;28;42917;-79
2022/03/06 07:29:42;;;;;;;;;;;16.80;40.10;;;;;;5045124;28;42919;-79
2022/03/06 07:32:08;;;;;;;;;;;16.70;41.90;;;;;;5044603;28;42997;-80
2022/03/06 07:34:33;;;;;;;;;;;16.70;40.70;;;;;;5044485;28;42953;-78
2022/03/06 07:36:59;;;;;;;;;;;16.70;43.00;;;;;;5044555;28;42963;-80
2022/03/06 07:39:24;;;;;;;;;;;16.70;41.80;;;;;;5044341;28;43013;-78
2022/03/06 07:41:50;;;;;;;;;;;16.70;43.90;;;;;;5044643;28;42768;-80
2022/03/06 07:44:15;;;;;;;;;;;16.70;41.40;;;;;;5044693;28;42865;-81
2022/03/06 07:46:41;;;;;;;;;;;16.80;43.60;;;;;;5044782;28;43065;-82
2022/03/06 07:49:07;;;;;;;;;;;16.70;43.10;;;;;;5043572;28;42840;-80
2022/03/06 07:51:32;;;;;;;;;;;16.80;43.60;;;;;;5044509;28;42927;-81
2022/03/06 07:53:58;;;;;;;;;;;16.80;40.90;;;;;;5044105;28;43484;-82
2022/03/06 07:56:25;;;;;;;;;;;16.70;41.10;;;;;;5042644;28;58506;-81
2022/03/06 07:58:51;;;;;;;;;;;16.60;40.20;;;;;;5044353;28;43710;-80
2022/03/06 08:01:17;;;;;;;;;;;16.70;39.10;;;;;;5044027;28;42875;-79
2022/03/06 08:03:43;;;;;;;;;;;16.70;43.50;;;;;;5044356;28;43768;-80
2022/03/06 08:06:08;;;;;;;;;;;16.70;43.70;;;;;;5044017;28;42904;-80
2022/03/06 08:08:34;;;;;;;;;;;16.80;42.40;;;;;;5044369;28;42970;-76
2022/03/06 08:10:59;;;;;;;;;;;19.90;33.70;;;;;;5044162;28;42923;-75
2022/03/06 08:13:24;;;;;;;;;;;16.20;31.70;;;;;;5043594;28;42915;-76
2022/03/06 08:15:50;;;;;;;;;;;16.10;35.00;;;;;;5043796;28;42958;-76
2022/03/06 08:18:16;;;;;;;;;;;16.00;32.60;;;;;;5042116;28;45296;-74
2022/03/06 08:20:41;;;;;;;;;;;16.00;33.40;;;;;;5043266;28;43711;-76
2022/03/06 08:23:07;;;;;;;;;;;15.90;32.90;;;;;;5042034;28;43346;-76
2022/03/06 08:25:33;;;;;;;;;;;15.90;33.40;;;;;;5043853;28;42927;-75
2022/03/06 08:27:58;;;;;;;;;;;16.00;33.50;;;;;;5043917;28;43401;-75
2022/03/06 08:30:24;;;;;;;;;;;16.10;33.40;;;;;;5043383;28;42856;-76
2022/03/06 08:32:49;;;;;;;;;;;16.00;33.00;;;;;;5043027;28;43786;-75
2022/03/06 08:35:15;;;;;;;;;;;15.90;32.90;;;;;;5043745;28;42859;-74
2022/03/06 08:37:40;;;;;;;;;;;15.90;33.00;;;;;;5046012;28;43515;-75
2022/03/06 08:40:06;;;;;;;;;;;15.90;32.40;;;;;;5047050;28;43157;-75
2022/03/06 08:42:32;;;;;;;;;;;15.90;32.70;;;;;;5047410;28;43174;-76
2022/03/06 08:44:57;;;;;;;;;;;15.90;32.90;;;;;;5047497;28;42892;-75
2022/03/06 08:47:23;;;;;;;;;;;15.90;32.10;;;;;;5047207;28;43458;-74
2022/03/06 08:49:48;;;;;;;;;;;15.90;31.90;;;;;;5047391;28;42986;-76
2022/03/06 08:52:14;;;;;;;;;;;15.90;32.20;;;;;;5047188;28;43706;-75
2022/03/06 08:54:39;;;;;;;;;;;15.90;31.30;;;;;;5047089;28;42848;-75
2022/03/06 08:57:05;;;;;;;;;;;15.90;31.60;;;;;;5046688;28;43597;-75
2022/03/06 08:59:30;;;;;;;;;;;15.90;31.30;;;;;;5044890;28;42997;-76
2022/03/06 09:01:56;;;;;;;;;;;15.90;31.60;;;;;;5046547;28;42949;-75
2022/03/06 09:04:23;;;;;;;;;;;16.00;31.50;;;;;;5047104;28;42907;-76
2022/03/06 09:06:48;;;;;;;;;;;15.90;31.40;;;;;;5046754;28;43496;-76
2022/03/06 09:09:14;;;;;;;;;;;15.80;31.10;;;;;;5046708;28;42901;-76
2022/03/06 09:11:39;;;;;;;;;;;15.90;31.40;;;;;;5046264;28;43557;-76
2022/03/06 09:14:05;;;;;;;;;;;16.00;31.60;;;;;;5046330;28;42919;-75
2022/03/06 09:16:31;;;;;;;;;;;15.90;31.40;;;;;;5046285;28;43480;-75
2022/03/06 09:18:56;;;;;;;;;;;15.90;31.80;;;;;;5046512;28;43056;-76
2022/03/06 09:21:22;;;;;;;;;;;16.00;32.00;;;;;;5046829;28;42893;-76
2022/03/06 09:23:47;;;;;;;;;;;16.00;31.00;;;;;;5046471;28;43030;-75
2022/03/06 09:26:13;;;;;;;;;;;16.00;31.50;;;;;;5046203;28;43277;-76
2022/03/06 09:28:38;;;;;;;;;;;16.10;32.00;;;;;;5045206;28;43103;-76
2022/03/06 09:31:04;;;;;;;;;;;16.10;32.10;;;;;;5046567;28;43372;-75
2022/03/06 09:33:29;;;;;;;;;;;16.10;31.90;;;;;;5046442;28;43394;-75
2022/03/06 09:35:55;;;;;;;;;;;16.10;31.80;;;;;;5046703;28;42820;-75
2022/03/06 09:38:20;;;;;;;;;;;16.10;32.40;;;;;;5045857;28;42899;-76
2022/03/06 09:40:46;;;;;;;;;;;16.10;31.90;;;;;;5045921;28;43362;-75
2022/03/06 09:43:16;;;;;;;;;;;16.10;31.60;;;;;;5045932;28;42904;-76
2022/03/06 09:45:42;;;;;;;;;;;16.10;31.50;;;;;;5044373;28;44324;-75
2022/03/06 09:48:08;;;;;;;;;;;16.10;31.30;;;;;;5045350;28;43238;-76
2022/03/06 09:50:34;;;;;;;;;;;16.10;31.60;;;;;;5044094;28;45510;-75
2022/03/06 09:52:59;;;;;;;;;;;16.10;31.90;;;;;;5046041;28;42915;-75
2022/03/06 09:55:26;;;;;;;;;;;16.10;31.50;;;;;;5045956;28;42911;-75
2022/03/06 09:57:55;;;;;;;;;;;16.20;31.60;;;;;;5046342;28;43001;-76
2022/03/06 10:00:21;;;;;;;;;;;16.10;31.60;;;;;;5045843;28;43742;-75
2022/03/06 10:02:53;;;;;;;;;;;16.10;31.30;;;;;;5045933;28;43022;-76
2022/03/06 10:05:47;;;;;;;;;;;16.10;31.10;;;;;;5045613;28;43386;-75
2022/03/06 10:08:22;;;;;;;;;;;16.00;30.20;;;;;;5031722;28;43057;-75
2022/03/06 10:10:49;;;;;;;;;;;15.90;30.10;;;;;;5049647;28;43918;-74
2022/03/06 10:13:23;;;;;;;;;;;15.90;30.30;;;;;;5047562;28;42990;-74
2022/03/06 10:16:07;;;;;;;;;;;16.00;30.30;;;;;;5045850;28;43038;-75
2022/03/06 10:18:34;;;;;;;;;;;15.70;30.10;;;;;;5045665;28;43063;-74
2022/03/06 10:21:03;;;;;;;;;;;16.00;30.40;;;;;;5044676;28;43896;-74
2022/03/06 10:23:29;;;;;;;;;;;16.10;30.80;;;;;;5045048;28;42875;-74
2022/03/06 10:26:26;;;;;;;;;;;16.10;30.50;;;;;;5044702;28;43579;-75
2022/03/06 10:28:59;;;;;;;;;;;16.10;30.50;;;;;;5011239;28;43038;-75
2022/03/06 10:31:26;;;;;;;;;;;16.10;30.60;;;;;;5045574;28;43916;-74
2022/03/06 10:33:55;;;;;;;;;;;16.10;31.10;;;;;;5045384;28;42852;-75
2022/03/06 10:36:31;;;;;;;;;;;16.20;30.70;;;;;;5044683;28;42914;-75
2022/03/06 10:38:57;;;;;;;;;;;16.20;31.00;;;;;;5044383;28;42896;-74
2022/03/06 10:41:22;;;;;;;;;;;16.20;30.80;;;;;;5044985;28;43445;-75
2022/03/06 10:43:49;;;;;;;;;;;16.10;30.30;;;;;;5045353;28;42967;-74
2022/03/06 10:46:15;;;;;;;;;;;16.10;30.50;;;;;;5044407;28;43519;-75
2022/03/06 10:48:42;;;;;;;;;;;16.20;30.50;;;;;;5044844;28;43006;-75
2022/03/06 10:51:09;;;;;;;;;;;16.20;30.70;;;;;;5045186;28;43529;-75
2022/03/06 10:53:35;;;;;;;;;;;16.10;30.90;;;;;;5045171;28;42900;-75
2022/03/06 10:56:08;;;;;;;;;;;16.10;30.00;;;;;;5044024;28;42947;-75
2022/03/06 10:58:35;;;;;;;;;;;16.20;30.30;;;;;;5044929;28;42965;-75
2022/03/06 11:01:02;;;;;;;;;;;16.10;30.00;;;;;;5042798;28;43830;-76
2022/03/06 11:03:27;;;;;;;;;;;16.10;30.20;;;;;;5045058;28;43047;-75
2022/03/06 11:05:53;;;;;;;;;;;16.00;30.40;;;;;;5045365;28;43620;-76
2022/03/06 11:08:18;;;;;;;;;;;16.10;30.60;;;;;;5044886;28;42982;-74
2022/03/06 11:10:44;;;;;;;;;;;16.10;30.00;;;;;;5045006;28;43414;-75
2022/03/06 11:13:13;;;;;;;;;;;16.10;30.50;;;;;;5044824;28;43053;-76
2022/03/06 11:15:40;;;;;;;;;;;16.10;30.10;;;;;;5044910;28;43901;-74
2022/03/06 11:18:06;;;;;;;;;;;16.10;30.00;;;;;;5044978;28;42894;-75
2022/03/06 11:20:32;;;;;;;;;;;16.10;30.30;;;;;;5044652;28;42997;-75
2022/03/06 11:23:02;;;;;;;;;;;16.10;30.70;;;;;;5044735;28;42889;-74
2022/03/06 11:25:35;;;;;;;;;;;16.20;30.60;;;;;;5043989;28;43063;-74
2022/03/06 11:28:13;;;;;;;;;;;16.10;30.00;;;;;;5044573;28;42879;-75
2022/03/06 11:30:39;;;;;;;;;;;16.10;30.50;;;;;;5043534;28;43707;-75
2022/03/06 11:33:08;;;;;;;;;;;16.10;30.20;;;;;;5044478;28;43143;-75
2022/03/06 11:35:42;;;;;;;;;;;16.20;30.50;;;;;;5043931;28;43434;-75
2022/03/06 11:38:09;;;;;;;;;;;16.10;30.00;;;;;;5044419;28;42938;-74
2022/03/06 11:40:40;;;;;;;;;;;16.10;30.20;;;;;;5042741;28;43924;-74
2022/03/06 11:43:09;;;;;;;;;;;16.00;29.90;;;;;;5043100;28;43371;-75
2022/03/06 11:46:16;;;;;;;;;;;16.00;29.90;;;;;;5043010;28;42949;-75
2022/03/06 11:48:44;;;;;;;;;;;16.10;30.60;;;;;;5020994;28;43078;-83
2022/03/06 11:51:12;;;;;;;;;;;16.20;31.80;;;;;;5021074;28;43077;-75
2022/03/06 11:53:52;;;;;;;;;;;16.20;32.10;;;;;;5020044;28;43285;-75
2022/03/06 11:56:33;;;;;;;;;;;16.20;32.20;;;;;;5020409;28;43667;-75
2022/03/06 11:58:59;;;;;;;;;;;16.20;32.30;;;;;;5021418;28;43074;-75
2022/03/06 12:01:25;;;;;;;;;;;16.20;32.50;;;;;;5020979;28;43626;-76
2022/03/06 12:03:53;;;;;;;;;;;16.20;32.40;;;;;;5021277;28;43024;-74
2022/03/06 12:06:18;;;;;;;;;;;16.20;33.00;;;;;;5020933;28;42877;-76
2022/03/06 12:08:45;;;;;;;;;;;16.20;32.50;;;;;;5021373;28;42889;-75
2022/03/06 12:11:11;;;;;;;;;;;16.20;32.50;;;;;;5020542;28;43691;-75
2022/03/06 12:13:39;;;;;;;;;;;16.20;32.20;;;;;;5020937;28;43061;-75
2022/03/06 12:16:08;;;;;;;;;;;16.30;32.30;;;;;;5022105;28;42934;-74
2022/03/06 12:18:34;;;;;;;;;;;16.20;32.90;;;;;;5024715;28;43016;-76
2022/03/06 12:21:00;;;;;;;;;;;16.20;33.00;;;;;;5043851;28;42927;-77
2022/03/06 12:23:30;;;;;;;;;;;16.20;33.10;;;;;;5044197;28;43106;-76
2022/03/06 12:25:57;;;;;;;;;;;16.20;32.70;;;;;;5042595;28;45891;-77
2022/03/06 12:28:26;;;;;;;;;;;16.20;33.10;;;;;;5042478;28;43036;-76
2022/03/06 12:30:52;;;;;;;;;;;16.20;32.60;;;;;;5043516;28;43583;-76
2022/03/06 12:33:24;;;;;;;;;;;16.30;33.20;;;;;;5043980;28;42847;-76
2022/03/06 12:35:50;;;;;;;;;;;16.30;32.80;;;;;;5043191;28;44108;-76
2022/03/06 12:38:22;;;;;;;;;;;16.30;33.30;;;;;;5043327;28;43024;-76
2022/03/06 12:40:47;;;;;;;;;;;16.30;33.30;;;;;;5043761;28;43386;-75
2022/03/06 12:43:18;;;;;;;;;;;16.30;32.90;;;;;;5042237;28;43120;-76
2022/03/06 12:45:44;;;;;;;;;;;16.20;33.40;;;;;;5044082;28;43797;-76
2022/03/06 12:48:09;;;;;;;;;;;16.20;33.50;;;;;;5044044;28;42903;-76
2022/03/06 12:50:35;;;;;;;;;;;16.20;33.70;;;;;;5044120;28;43143;-76
2022/03/06 12:53:01;;;;;;;;;;;16.30;33.20;;;;;;5045644;28;42974;-77
2022/03/06 12:55:26;;;;;;;;;;;16.30;33.70;;;;;;5047478;28;42851;-77
2022/03/06 12:57:54;;;;;;;;;;;16.30;33.10;;;;;;5042149;28;43131;-75
2022/03/06 13:00:22;;;;;;;;;;;16.30;33.60;;;;;;5043599;28;43588;-76
2022/03/06 13:02:48;;;;;;;;;;;16.20;33.60;;;;;;5043708;28;42955;-76
2022/03/06 13:05:13;;;;;;;;;;;16.20;33.70;;;;;;5042918;28;42955;-76
2022/03/06 13:07:39;;;;;;;;;;;16.30;33.70;;;;;;5042609;28;43079;-76
2022/03/06 13:10:07;;;;;;;;;;;16.30;33.70;;;;;;5042944;28;42927;-76
2022/03/06 13:12:34;;;;;;;;;;;16.20;33.80;;;;;;5042844;28;42992;-75
2022/03/06 13:15:02;;;;;;;;;;;16.30;34.00;;;;;;5042787;28;43696;-75
2022/03/06 13:17:28;;;;;;;;;;;16.30;34.00;;;;;;5043106;28;43004;-75
2022/03/06 13:19:57;;;;;;;;;;;16.30;33.50;;;;;;5042737;28;42918;-74
2022/03/06 13:22:26;;;;;;;;;;;16.30;34.00;;;;;;5042487;28;42990;-76
2022/03/06 13:24:52;;;;;;;;;;;16.30;34.00;;;;;;5046847;28;43533;-75
2022/03/06 13:27:25;;;;;;;;;;;16.30;33.80;;;;;;5046743;28;42982;-77
2022/03/06 13:30:03;;;;;;;;;;;16.30;33.80;;;;;;5046355;28;43074;-74
2022/03/06 13:32:29;;;;;;;;;;;16.30;33.80;;;;;;5045844;28;43046;-76
2022/03/06 13:34:55;;;;;;;;;;;16.30;33.50;;;;;;5044069;28;44607;-75
2022/03/06 13:37:37;;;;;;;;;;;16.30;34.40;;;;;;5046152;28;42875;-76
2022/03/06 13:40:08;;;;;;;;;;;16.30;33.90;;;;;;5046448;28;43550;-76
2022/03/06 13:42:34;;;;;;;;;;;16.20;33.50;;;;;;5045911;28;43084;-75
2022/03/06 13:45:10;;;;;;;;;;;16.20;33.40;;;;;;5027819;28;44770;-76
2022/03/06 13:47:44;;;;;;;;;;;16.20;33.40;;;;;;5046390;28;43051;-76
2022/03/06 13:50:17;;;;;;;;;;;16.20;33.80;;;;;;5044016;28;44316;-77
2022/03/06 13:52:42;;;;;;;;;;;16.20;33.50;;;;;;5046047;28;43006;-76
2022/03/06 13:55:09;;;;;;;;;;;16.30;34.00;;;;;;5045877;28;43675;-76
2022/03/06 13:57:35;;;;;;;;;;;16.30;33.30;;;;;;5046194;28;42915;-76
2022/03/06 14:00:20;;;;;;;;;;;16.30;33.40;;;;;;5045963;28;43466;-76
2022/03/06 14:02:57;;;;;;;;;;;16.20;33.30;;;;;;5045945;28;43134;-75
2022/03/06 14:05:26;;;;;;;;;;;16.30;33.40;;;;;;5045257;28;43607;-76
2022/03/06 14:07:52;;;;;;;;;;;16.40;33.90;;;;;;5046139;28;42828;-76
2022/03/06 14:10:21;;;;;;;;;;;16.30;33.90;;;;;;5045713;28;42978;-75
2022/03/06 14:12:46;;;;;;;;;;;16.30;33.30;;;;;;5045565;28;42950;-76
2022/03/06 14:15:22;;;;;;;;;;;16.20;33.30;;;;;;5045629;28;43038;-75